createdAt,value
2018-09-15T00:01:36.121Z,18.00
2018-09-15T00:04:03.784Z,18.00
2018-09-15T00:06:31.489Z,17.80
2018-09-15T00:08:59.289Z,17.50
2018-09-15T00:11:27.127Z,17.30
2018-09-15T00:13:54.769Z,17.10
2018-09-15T00:16:22.437Z,17.00
2018-09-15T00:18:51.193Z,17.00
2018-09-15T00:21:18.901Z,17.10
2018-09-15T00:23:46.871Z,17.10
2018-09-15T00:26:14.706Z,17.20
2018-09-15T00:28:42.719Z,17.30
2018-09-15T00:31:10.365Z,17.30
2018-09-15T00:33:37.976Z,17.20
2018-09-15T00:36:05.576Z,17.20
2018-09-15T00:38:33.219Z,17.20
2018-09-15T00:41:01.069Z,17.10
2018-09-15T00:43:28.676Z,17.10
2018-09-15T00:45:56.321Z,17.00
2018-09-15T00:48:23.933Z,17.00
2018-09-15T00:50:51.618Z,16.90
2018-09-15T00:53:19.459Z,16.90
2018-09-15T00:55:47.078Z,16.90
2018-09-15T00:58:14.733Z,16.90
2018-09-15T01:00:42.608Z,16.80
2018-09-15T01:03:10.215Z,16.70
2018-09-15T01:05:37.952Z,16.70
2018-09-15T01:08:05.534Z,16.70
2018-09-15T01:10:33.185Z,16.60
2018-09-15T01:13:00.820Z,16.50
2018-09-15T01:15:28.590Z,16.40
2018-09-15T01:17:57.263Z,16.40
2018-09-15T01:20:25.845Z,16.40
2018-09-15T01:22:53.988Z,16.20
2018-09-15T01:25:22.673Z,16.20
2018-09-15T01:27:50.538Z,16.20
2018-09-15T01:30:18.787Z,16.20
2018-09-15T01:32:46.916Z,16.10
2018-09-15T01:35:14.633Z,16.10
2018-09-15T01:37:42.247Z,16.00
2018-09-15T01:40:09.892Z,15.90
2018-09-15T01:42:37.512Z,15.70
2018-09-15T01:45:05.268Z,15.70
2018-09-15T01:47:32.947Z,15.70
2018-09-15T01:50:00.937Z,15.70
2018-09-15T01:52:28.685Z,15.60
2018-09-15T01:54:56.304Z,15.50
2018-09-15T01:57:24.232Z,15.40
2018-09-15T01:59:51.981Z,15.40
2018-09-15T02:02:19.572Z,15.40
2018-09-15T02:04:47.408Z,15.40
2018-09-15T02:07:15.161Z,15.20
2018-09-15T02:09:42.734Z,15.20
2018-09-15T02:12:10.427Z,15.10
2018-09-15T02:14:38.159Z,15.00
2018-09-15T02:17:05.891Z,14.80
2018-09-15T02:19:33.742Z,14.70
2018-09-15T02:22:01.859Z,14.70
2018-09-15T02:24:29.728Z,14.80
2018-09-15T02:26:57.512Z,14.80
2018-09-15T02:29:25.199Z,14.80
2018-09-15T02:31:53.522Z,14.70
2018-09-15T02:34:21.289Z,14.60
2018-09-15T02:36:49.309Z,14.50
2018-09-15T02:39:17.208Z,14.30
2018-09-15T02:41:44.871Z,14.30
2018-09-15T02:44:12.633Z,14.30
2018-09-15T02:46:40.333Z,14.10
2018-09-15T02:49:07.858Z,14.00
2018-09-15T02:51:35.494Z,13.90
2018-09-15T02:54:03.350Z,14.00
2018-09-15T02:56:30.936Z,14.10
2018-09-15T02:58:58.656Z,14.10
2018-09-15T03:01:26.417Z,14.10
2018-09-15T03:03:54.459Z,14.10
2018-09-15T03:06:22.103Z,14.10
2018-09-15T03:08:50.198Z,14.20
2018-09-15T03:11:18.072Z,14.20
2018-09-15T03:13:45.697Z,14.20
2018-09-15T03:16:14.096Z,14.20
2018-09-15T03:18:41.905Z,14.20
2018-09-15T03:21:10.550Z,14.10
2018-09-15T03:23:38.443Z,14.10
2018-09-15T03:26:07.327Z,14.00
2018-09-15T03:28:35.754Z,13.90
2018-09-15T03:31:03.447Z,14.00
2018-09-15T03:33:31.160Z,13.90
2018-09-15T03:35:59.529Z,14.00
2018-09-15T03:38:27.378Z,14.00
2018-09-15T03:40:55.237Z,13.80
2018-09-15T03:43:23.843Z,13.70
2018-09-15T03:45:51.412Z,13.70
2018-09-15T03:48:18.946Z,13.70
2018-09-15T03:50:46.483Z,13.70
2018-09-15T03:53:14.153Z,13.70
2018-09-15T03:55:41.696Z,13.70
2018-09-15T03:58:09.441Z,13.50
2018-09-15T04:00:37.759Z,13.40
2018-09-15T04:03:05.630Z,13.30
2018-09-15T04:05:33.728Z,13.30
2018-09-15T04:08:02.461Z,13.40
2018-09-15T04:10:30.303Z,13.40
2018-09-15T04:12:58.073Z,13.30
2018-09-15T04:15:25.877Z,13.20
2018-09-15T04:17:53.880Z,13.20
2018-09-15T04:20:21.839Z,13.10
2018-09-15T04:22:49.501Z,13.10
2018-09-15T04:25:18.195Z,13.00
2018-09-15T04:27:46.172Z,13.00
2018-09-15T04:30:14.204Z,12.90
2018-09-15T04:32:42.418Z,13.00
2018-09-15T04:35:10.191Z,12.90
2018-09-15T04:37:38.484Z,12.90
2018-09-15T04:40:06.205Z,12.80
2018-09-15T04:42:34.034Z,12.70
2018-09-15T04:45:02.731Z,12.70
2018-09-15T04:47:30.714Z,12.60
2018-09-15T04:49:58.453Z,12.50
2018-09-15T04:52:26.552Z,12.60
2018-09-15T04:54:54.653Z,12.60
2018-09-15T04:57:22.455Z,12.50
2018-09-15T04:59:50.296Z,12.50
2018-09-15T05:02:19.006Z,12.50
2018-09-15T05:04:46.653Z,12.50
2018-09-15T05:07:14.609Z,12.40
2018-09-15T05:09:42.507Z,12.30
2018-09-15T05:12:10.540Z,12.20
2018-09-15T05:14:39.061Z,12.10
2018-09-15T05:17:08.435Z,12.10
2018-09-15T05:19:36.413Z,12.10
2018-09-15T05:22:04.112Z,12.30
2018-09-15T05:24:31.939Z,12.30
2018-09-15T05:27:00.565Z,12.40
2018-09-15T05:29:28.826Z,12.20
2018-09-15T05:31:56.564Z,12.40
2018-09-15T05:34:24.927Z,12.40
2018-09-15T05:36:53.516Z,12.50
2018-09-15T05:39:21.537Z,12.50
2018-09-15T05:41:49.352Z,12.50
2018-09-15T05:44:18.354Z,12.50
2018-09-15T05:46:46.211Z,12.60
2018-09-15T05:49:14.001Z,12.60
2018-09-15T05:51:42.029Z,12.50
2018-09-15T05:54:10.452Z,12.40
2018-09-15T05:56:38.373Z,12.50
2018-09-15T05:59:06.602Z,12.70
2018-09-15T06:01:34.529Z,12.70
2018-09-15T06:04:02.399Z,12.70
2018-09-15T06:06:30.508Z,12.70
2018-09-15T06:08:58.114Z,12.70
2018-09-15T06:11:26.209Z,12.70
2018-09-15T06:13:54.117Z,12.90
2018-09-15T06:16:22.605Z,13.10
2018-09-15T06:18:50.872Z,13.20
2018-09-15T06:21:18.572Z,13.30
2018-09-15T06:23:46.303Z,13.30
2018-09-15T06:26:14.557Z,13.40
2018-09-15T06:28:42.646Z,13.50
2018-09-15T06:31:10.493Z,13.40
2018-09-15T06:33:38.209Z,13.50
2018-09-15T06:36:06.148Z,13.50
2018-09-15T06:38:34.243Z,13.60
2018-09-15T06:41:02.358Z,13.60
2018-09-15T06:43:30.434Z,13.60
2018-09-15T06:45:58.576Z,13.60
2018-09-15T06:48:27.012Z,13.70
2018-09-15T06:50:55.066Z,13.90
2018-09-15T06:53:23.047Z,14.00
2018-09-15T06:55:51.305Z,14.20
2018-09-15T06:58:19.279Z,14.40
2018-09-15T07:00:50.325Z,14.50
2018-09-15T07:03:18.084Z,14.60
2018-09-15T07:05:45.854Z,14.80
2018-09-15T07:08:13.805Z,15.00
2018-09-15T07:10:41.585Z,15.10
2018-09-15T07:13:09.858Z,15.30
2018-09-15T07:15:37.785Z,15.30
2018-09-15T07:18:06.441Z,15.40
2018-09-15T07:20:34.185Z,15.40
2018-09-15T07:23:02.222Z,15.60
2018-09-15T07:25:30.161Z,15.70
2018-09-15T07:27:58.059Z,15.90
2018-09-15T07:30:26.073Z,16.00
2018-09-15T07:32:54.033Z,16.10
2018-09-15T07:35:21.918Z,16.30
2018-09-15T07:37:49.811Z,16.40
2018-09-15T07:40:18.543Z,16.70
2018-09-15T07:42:46.523Z,16.90
2018-09-15T07:45:14.262Z,17.00
2018-09-15T07:47:42.329Z,17.10
2018-09-15T07:50:14.585Z,17.20
2018-09-15T07:52:44.309Z,17.20
2018-09-15T07:55:12.341Z,17.10
2018-09-15T07:57:40.755Z,17.10
2018-09-15T08:00:08.924Z,17.10
2018-09-15T08:02:37.982Z,17.20
2018-09-15T08:05:06.168Z,17.40
2018-09-15T08:07:34.401Z,17.40
2018-09-15T08:10:04.929Z,17.40
2018-09-15T08:12:34.439Z,17.60
2018-09-15T08:15:05.732Z,17.80
2018-09-15T08:17:34.150Z,18.10
2018-09-15T08:20:03.128Z,18.50
2018-09-15T08:22:33.528Z,18.70
2018-09-15T08:25:02.230Z,18.80
2018-09-15T08:27:30.455Z,18.80
2018-09-15T08:29:58.337Z,18.50
2018-09-15T08:32:26.384Z,18.10
2018-09-15T08:34:54.208Z,18.10
2018-09-15T08:37:22.478Z,18.00
2018-09-15T08:39:50.591Z,18.10
2018-09-15T08:42:18.518Z,18.10
2018-09-15T08:44:46.803Z,18.50
2018-09-15T08:47:15.982Z,18.80
2018-09-15T08:49:44.054Z,19.00
2018-09-15T08:52:11.665Z,19.10
2018-09-15T08:54:39.764Z,19.30
2018-09-15T08:57:07.567Z,19.20
2018-09-15T08:59:37.336Z,19.10
2018-09-15T09:02:11.088Z,19.20
2018-09-15T09:04:39.265Z,19.30
2018-09-15T09:07:07.027Z,19.60
2018-09-15T09:09:34.823Z,19.70
2018-09-15T09:12:03.912Z,19.70
2018-09-15T09:14:31.702Z,19.50
2018-09-15T09:16:59.436Z,19.50
2018-09-15T09:19:27.843Z,19.30
2018-09-15T09:22:00.214Z,19.30
2018-09-15T09:24:28.729Z,19.40
2018-09-15T09:26:56.820Z,19.10
2018-09-15T09:29:25.442Z,19.50
2018-09-15T09:31:53.431Z,19.40
2018-09-15T09:34:21.866Z,19.50
2018-09-15T09:36:49.708Z,19.50
2018-09-15T09:39:17.610Z,19.30
2018-09-15T09:41:45.619Z,19.60
2018-09-15T09:44:13.869Z,20.00
2018-09-15T09:46:41.841Z,20.20
2018-09-15T09:49:09.682Z,20.20
2018-09-15T09:51:37.362Z,19.70
2018-09-15T09:54:05.447Z,19.80
2018-09-15T09:56:34.417Z,19.90
2018-09-15T09:59:02.334Z,20.00
2018-09-15T10:01:35.705Z,20.10
2018-09-15T10:04:03.630Z,20.40
2018-09-15T10:06:31.549Z,20.70
2018-09-15T10:09:00.827Z,21.00
2018-09-15T10:11:28.894Z,21.20
2018-09-15T10:13:56.846Z,21.50
2018-09-15T10:16:24.882Z,21.70
2018-09-15T10:18:53.237Z,21.70
2018-09-15T10:21:21.077Z,21.60
2018-09-15T10:23:49.222Z,21.40
2018-09-15T10:26:17.525Z,21.30
2018-09-15T10:28:45.503Z,21.60
2018-09-15T10:31:13.396Z,21.90
2018-09-15T10:33:41.402Z,22.00
2018-09-15T10:36:09.275Z,22.00
2018-09-15T10:38:37.198Z,21.60
2018-09-15T10:41:05.124Z,21.20
2018-09-15T10:43:32.916Z,21.10
2018-09-15T10:46:00.773Z,21.00
2018-09-15T10:48:28.526Z,21.20
2018-09-15T10:50:56.393Z,21.30
2018-09-15T10:53:24.134Z,21.70
2018-09-15T10:55:52.002Z,22.30
2018-09-15T10:58:20.179Z,22.70
2018-09-15T11:00:47.924Z,22.90
2018-09-15T11:03:15.632Z,22.70
2018-09-15T11:05:43.985Z,22.50
2018-09-15T11:08:12.257Z,22.20
2018-09-15T11:10:40.441Z,21.90
2018-09-15T11:13:08.412Z,21.70
2018-09-15T11:15:37.107Z,21.40
2018-09-15T11:18:05.489Z,21.50
2018-09-15T11:20:34.064Z,21.90
2018-09-15T11:23:02.019Z,22.10
2018-09-15T11:25:30.080Z,22.10
2018-09-15T11:27:57.952Z,22.40
2018-09-15T11:30:25.814Z,22.70
2018-09-15T11:32:53.606Z,22.80
2018-09-15T11:35:21.400Z,22.90
2018-09-15T11:37:49.619Z,22.80
2018-09-15T11:40:17.511Z,23.00
2018-09-15T11:42:45.169Z,23.30
2018-09-15T11:45:13.311Z,23.30
2018-09-15T11:47:41.654Z,23.00
2018-09-15T11:50:09.466Z,22.80
2018-09-15T11:52:37.318Z,22.90
2018-09-15T11:55:05.511Z,22.40
2018-09-15T11:57:33.480Z,21.90
2018-09-15T12:00:01.652Z,21.80
2018-09-15T12:02:31.627Z,21.90
2018-09-15T12:05:00.337Z,21.90
2018-09-15T12:07:29.192Z,21.90
2018-09-15T12:09:57.924Z,22.00
2018-09-15T12:12:27.042Z,22.10
2018-09-15T12:14:55.451Z,21.70
2018-09-15T12:17:23.355Z,21.50
2018-09-15T12:19:51.661Z,21.60
2018-09-15T12:22:19.795Z,21.70
2018-09-15T12:24:47.921Z,21.80
2018-09-15T12:27:15.647Z,22.00
2018-09-15T12:29:43.864Z,22.00
2018-09-15T12:32:11.929Z,22.10
2018-09-15T12:34:45.024Z,22.00
2018-09-15T12:37:12.749Z,21.90
2018-09-15T12:39:40.677Z,21.90
2018-09-15T12:42:08.327Z,21.80
2018-09-15T12:44:36.317Z,21.60
2018-09-15T12:47:04.211Z,21.60
2018-09-15T12:49:32.236Z,21.70
2018-09-15T12:52:00.384Z,21.80
2018-09-15T12:54:28.223Z,21.70
2018-09-15T12:56:56.743Z,21.80
2018-09-15T12:59:24.490Z,22.00
2018-09-15T13:01:52.389Z,22.10
2018-09-15T13:04:20.774Z,22.30
2018-09-15T13:06:48.989Z,22.90
2018-09-15T13:09:16.739Z,23.40
2018-09-15T13:11:45.588Z,23.70
2018-09-15T13:14:13.710Z,24.10
2018-09-15T13:16:41.674Z,24.30
2018-09-15T13:19:10.006Z,24.20
2018-09-15T13:21:37.913Z,24.70
2018-09-15T13:24:06.410Z,25.00
2018-09-15T13:26:34.366Z,25.50
2018-09-15T13:29:02.381Z,25.20
2018-09-15T13:31:30.140Z,24.30
2018-09-15T13:33:58.395Z,24.10
2018-09-15T13:36:26.577Z,24.10
2018-09-15T13:38:55.088Z,23.80
2018-09-15T13:41:23.969Z,23.90
2018-09-15T13:43:52.201Z,23.90
2018-09-15T13:46:20.037Z,23.20
2018-09-15T13:48:47.951Z,22.90
2018-09-15T13:51:15.790Z,22.70
2018-09-15T13:53:43.628Z,22.40
2018-09-15T13:56:11.512Z,22.40
2018-09-15T13:58:39.511Z,22.20
2018-09-15T14:01:07.759Z,21.80
2018-09-15T14:03:36.470Z,21.50
2018-09-15T14:06:04.416Z,21.40
2018-09-15T14:08:32.685Z,21.60
2018-09-15T14:11:01.260Z,22.10
2018-09-15T14:13:29.922Z,22.50
2018-09-15T14:15:59.361Z,22.60
2018-09-15T14:18:27.265Z,22.40
2018-09-15T14:20:55.289Z,21.90
2018-09-15T14:23:23.475Z,21.70
2018-09-15T14:25:52.707Z,21.50
2018-09-15T14:28:20.567Z,21.60
2018-09-15T14:30:48.567Z,21.70
2018-09-15T14:33:16.329Z,22.00
2018-09-15T14:35:44.125Z,22.00
2018-09-15T14:38:12.097Z,22.20
2018-09-15T14:40:39.927Z,22.50
2018-09-15T14:43:07.924Z,22.70
2018-09-15T14:45:35.689Z,22.90
2018-09-15T14:48:03.573Z,22.90
2018-09-15T14:50:31.946Z,22.90
2018-09-15T14:53:00.669Z,23.00
2018-09-15T14:55:29.017Z,23.20
2018-09-15T14:57:57.463Z,23.20
2018-09-15T15:00:25.767Z,23.30
2018-09-15T15:02:57.571Z,23.00
2018-09-15T15:05:26.233Z,23.10
2018-09-15T15:07:54.349Z,22.80
2018-09-15T15:10:22.365Z,22.80
2018-09-15T15:12:50.771Z,22.90
2018-09-15T15:15:18.539Z,23.00
2018-09-15T15:17:46.217Z,22.80
2018-09-15T15:20:14.571Z,22.40
2018-09-15T15:22:42.659Z,22.50
2018-09-15T15:25:10.333Z,22.70
2018-09-15T15:27:38.076Z,22.90
2018-09-15T15:30:06.696Z,22.70
2018-09-15T15:32:34.561Z,22.40
2018-09-15T15:35:07.225Z,22.40
2018-09-15T15:37:35.056Z,22.40
2018-09-15T15:40:03.032Z,22.10
2018-09-15T15:42:30.699Z,21.70
2018-09-15T15:44:59.795Z,21.70
2018-09-15T15:47:27.890Z,21.70
2018-09-15T15:49:55.548Z,21.70
2018-09-15T15:52:23.303Z,21.70
2018-09-15T15:54:50.949Z,21.90
2018-09-15T15:57:18.835Z,21.90
2018-09-15T15:59:46.691Z,21.90
2018-09-15T16:02:14.912Z,21.90
2018-09-15T16:04:42.637Z,21.90
2018-09-15T16:07:10.325Z,21.70
2018-09-15T16:09:37.962Z,21.50
2018-09-15T16:12:05.638Z,21.40
2018-09-15T16:14:33.425Z,21.40
2018-09-15T16:17:01.272Z,21.50
2018-09-15T16:19:28.903Z,21.40
2018-09-15T16:21:56.588Z,21.30
2018-09-15T16:24:24.240Z,21.40
2018-09-15T16:26:56.366Z,21.30
2018-09-15T16:29:24.153Z,21.30
2018-09-15T16:31:51.901Z,21.40
2018-09-15T16:34:20.089Z,21.40
2018-09-15T16:36:47.853Z,21.40
2018-09-15T16:39:15.750Z,21.30
2018-09-15T16:41:43.495Z,21.40
2018-09-15T16:44:11.324Z,21.20
2018-09-15T16:46:39.003Z,21.20
2018-09-15T16:49:07.710Z,21.10
2018-09-15T16:51:35.682Z,20.90
2018-09-15T16:54:04.362Z,20.80
2018-09-15T16:56:31.989Z,20.80
2018-09-15T16:58:59.968Z,20.70
2018-09-15T17:01:27.709Z,20.70
2018-09-15T17:03:55.552Z,20.60
2018-09-15T17:06:23.812Z,20.50
2018-09-15T17:08:51.540Z,20.40
2018-09-15T17:11:19.292Z,20.30
2018-09-15T17:13:47.921Z,20.20
2018-09-15T17:16:16.025Z,20.00
2018-09-15T17:18:43.742Z,19.90
2018-09-15T17:21:12.177Z,19.80
2018-09-15T17:23:39.916Z,19.70
2018-09-15T17:26:08.095Z,19.50
2018-09-15T17:28:35.776Z,19.40
2018-09-15T17:31:03.499Z,19.20
2018-09-15T17:33:31.253Z,19.00
2018-09-15T17:35:58.905Z,18.90
2018-09-15T17:38:26.889Z,18.90
2018-09-15T17:40:54.544Z,18.80
2018-09-15T17:43:22.464Z,18.70
2018-09-15T17:45:50.710Z,18.70
2018-09-15T17:48:18.599Z,18.70
2018-09-15T17:50:46.418Z,18.60
2018-09-15T17:53:14.109Z,18.30
2018-09-15T17:55:41.945Z,18.10
2018-09-15T17:58:09.928Z,18.00
2018-09-15T18:00:37.956Z,17.90
2018-09-15T18:03:05.962Z,17.90
2018-09-15T18:05:34.279Z,17.80
2018-09-15T18:08:02.380Z,17.60
2018-09-15T18:10:30.269Z,17.60
2018-09-15T18:12:58.260Z,17.60
2018-09-15T18:15:26.288Z,17.40
2018-09-15T18:17:54.150Z,17.20
2018-09-15T18:20:22.599Z,17.10
2018-09-15T18:22:50.512Z,17.20
2018-09-15T18:25:18.494Z,17.30
2018-09-15T18:27:46.613Z,17.40
2018-09-15T18:30:14.998Z,17.50
2018-09-15T18:32:43.046Z,17.50
2018-09-15T18:35:12.000Z,17.60
2018-09-15T18:37:39.840Z,17.60
2018-09-15T18:40:08.818Z,17.50
2018-09-15T18:42:37.267Z,17.50
2018-09-15T18:45:05.260Z,17.50
2018-09-15T18:47:33.056Z,17.50
2018-09-15T18:50:00.734Z,17.60
2018-09-15T18:52:28.611Z,17.70
2018-09-15T18:54:56.560Z,17.60
2018-09-15T18:57:24.427Z,17.50
2018-09-15T18:59:53.324Z,17.50
2018-09-15T19:02:21.318Z,17.50
2018-09-15T19:04:48.964Z,17.50
2018-09-15T19:07:17.035Z,17.50
2018-09-15T19:09:44.808Z,17.50
2018-09-15T19:12:13.197Z,17.50
2018-09-15T19:14:41.362Z,17.50
2018-09-15T19:17:09.888Z,17.50
2018-09-15T19:19:37.873Z,17.50
2018-09-15T19:22:06.468Z,17.40
2018-09-15T19:24:34.359Z,17.30
2018-09-15T19:27:02.981Z,17.30
2018-09-15T19:29:30.899Z,17.20
2018-09-15T19:31:58.782Z,17.00
2018-09-15T19:34:26.603Z,17.00
2018-09-15T19:36:54.527Z,16.80
2018-09-15T19:39:22.689Z,16.60
2018-09-15T19:41:51.535Z,16.40
2018-09-15T19:44:21.656Z,16.40
2018-09-15T19:46:49.825Z,16.30
2018-09-15T19:49:17.872Z,16.50
2018-09-15T19:51:45.915Z,16.60
2018-09-15T19:54:13.688Z,16.70
2018-09-15T19:56:41.568Z,16.70
2018-09-15T19:59:09.623Z,16.70
2018-09-15T20:01:37.541Z,16.70
2018-09-15T20:04:05.505Z,16.70
2018-09-15T20:06:35.017Z,16.60
2018-09-15T20:09:04.997Z,16.50
2018-09-15T20:11:33.646Z,16.40
2018-09-15T20:14:01.769Z,16.40
2018-09-15T20:16:28.557Z,16.40
2018-09-15T20:18:55.232Z,16.40
2018-09-15T20:21:21.752Z,16.40
2018-09-15T20:23:50.085Z,16.30
2018-09-15T20:26:18.379Z,16.30
2018-09-15T20:28:46.529Z,16.30
2018-09-15T20:31:14.582Z,16.20
2018-09-15T20:33:42.625Z,16.10
2018-09-15T20:36:11.789Z,16.00
2018-09-15T20:38:40.557Z,16.10
2018-09-15T20:41:08.303Z,16.10
2018-09-15T20:43:36.403Z,16.00
2018-09-15T20:46:04.157Z,16.00
2018-09-15T20:48:31.827Z,16.00
2018-09-15T20:50:59.490Z,16.00
2018-09-15T20:53:27.538Z,15.90
2018-09-15T20:55:55.393Z,16.00
2018-09-15T20:58:23.597Z,16.20
2018-09-15T21:00:51.767Z,16.20
2018-09-15T21:03:19.518Z,16.20
2018-09-15T21:05:49.007Z,16.40
2018-09-15T21:08:16.819Z,16.50
2018-09-15T21:10:44.568Z,16.70
2018-09-15T21:13:12.384Z,16.60
2018-09-15T21:15:40.193Z,16.40
2018-09-15T21:18:07.863Z,16.30
2018-09-15T21:20:36.374Z,16.40
2018-09-15T21:23:04.170Z,16.40
2018-09-15T21:25:31.912Z,16.30
2018-09-15T21:27:59.808Z,16.10
2018-09-15T21:30:28.737Z,16.00
2018-09-15T21:32:56.486Z,15.90
2018-09-15T21:35:24.655Z,15.70
2018-09-15T21:37:53.108Z,15.80
2018-09-15T21:40:21.729Z,15.70
2018-09-15T21:42:50.319Z,15.60
2018-09-15T21:45:18.013Z,15.60
2018-09-15T21:47:45.688Z,15.40
2018-09-15T21:50:13.385Z,15.30
2018-09-15T21:52:41.545Z,15.20
2018-09-15T21:55:09.326Z,15.20
2018-09-15T21:57:37.079Z,15.00
2018-09-15T22:00:07.234Z,14.90
2018-09-15T22:02:34.907Z,14.80
2018-09-15T22:05:03.224Z,14.70
2018-09-15T22:07:31.454Z,14.70
2018-09-15T22:09:59.407Z,14.60
2018-09-15T22:12:27.416Z,14.50
2018-09-15T22:14:55.243Z,14.40
2018-09-15T22:17:23.405Z,14.30
2018-09-15T22:19:51.860Z,14.40
2018-09-15T22:22:19.881Z,14.40
2018-09-15T22:24:48.933Z,14.40
2018-09-15T22:27:16.793Z,14.30
2018-09-15T22:29:45.110Z,14.30
2018-09-15T22:32:12.837Z,14.20
2018-09-15T22:34:40.724Z,14.10
2018-09-15T22:37:09.312Z,14.10
2018-09-15T22:39:37.193Z,14.10
2018-09-15T22:42:05.265Z,13.90
2018-09-15T22:44:33.431Z,13.80
2018-09-15T22:47:01.309Z,13.90
2018-09-15T22:49:29.643Z,13.90
2018-09-15T22:51:57.439Z,13.90
2018-09-15T22:54:25.208Z,13.80
2018-09-15T22:56:53.120Z,13.80
2018-09-15T22:59:20.893Z,13.70
2018-09-15T23:01:49.374Z,13.70
2018-09-15T23:04:17.296Z,13.50
2018-09-15T23:06:45.665Z,13.50
2018-09-15T23:09:13.472Z,13.40
2018-09-15T23:11:41.135Z,13.50
2018-09-15T23:14:09.449Z,13.40
2018-09-15T23:16:37.611Z,13.30
2018-09-15T23:19:06.561Z,13.30
2018-09-15T23:21:46.450Z,13.40
2018-09-15T23:24:16.034Z,13.40
2018-09-15T23:26:44.412Z,13.40
2018-09-15T23:29:12.068Z,13.20
2018-09-15T23:31:40.244Z,13.10
2018-09-15T23:34:09.606Z,13.10
2018-09-15T23:36:37.323Z,13.10
2018-09-15T23:39:08.262Z,13.20
2018-09-15T23:41:36.165Z,13.10
2018-09-15T23:44:04.323Z,13.10
2018-09-15T23:46:33.392Z,13.10
2018-09-15T23:49:01.441Z,13.10
2018-09-15T23:51:29.495Z,13.10
2018-09-15T23:53:57.154Z,13.10
2018-09-15T23:56:24.900Z,13.10
2018-09-15T23:58:53.829Z,13.00
